createdAt,value
2023-04-01T00:00:32.000Z,0
2023-04-01T00:01:32.000Z,0
2023-04-01T00:02:33.000Z,0
2023-04-01T00:03:34.000Z,0
2023-04-01T00:04:35.000Z,0
2023-04-01T00:05:36.000Z,0
2023-04-01T00:06:36.000Z,0
2023-04-01T00:07:37.000Z,0
2023-04-01T00:08:38.000Z,0
2023-04-01T00:09:39.000Z,0
2023-04-01T00:10:40.000Z,0
2023-04-01T00:11:40.000Z,0
2023-04-01T00:12:41.000Z,0
2023-04-01T00:13:42.000Z,0
2023-04-01T00:14:43.000Z,0
2023-04-01T00:15:43.000Z,0
2023-04-01T00:16:44.000Z,0
2023-04-01T00:17:45.000Z,0
2023-04-01T00:18:45.000Z,0
2023-04-01T00:19:46.000Z,0
2023-04-01T00:20:47.000Z,0
2023-04-01T00:21:48.000Z,0
2023-04-01T00:22:49.000Z,0
2023-04-01T00:23:49.000Z,0
2023-04-01T00:24:50.000Z,0
2023-04-01T00:25:51.000Z,0
2023-04-01T00:26:52.000Z,0
2023-04-01T00:27:52.000Z,0
2023-04-01T00:28:53.000Z,0
2023-04-01T00:29:54.000Z,0
2023-04-01T00:30:55.000Z,0
2023-04-01T00:31:55.000Z,0
2023-04-01T00:32:56.000Z,0
2023-04-01T00:33:57.000Z,0
2023-04-01T00:34:57.000Z,0
2023-04-01T00:35:58.000Z,0
2023-04-01T00:36:59.000Z,0
2023-04-01T00:38:00.000Z,0
2023-04-01T00:39:00.000Z,0
2023-04-01T00:40:01.000Z,0
2023-04-01T00:41:02.000Z,0
2023-04-01T00:42:02.000Z,0
2023-04-01T00:43:03.000Z,0
2023-04-01T00:44:04.000Z,0
2023-04-01T00:45:05.000Z,0
2023-04-01T00:46:06.000Z,0
2023-04-01T00:47:06.000Z,0
2023-04-01T00:48:07.000Z,0
2023-04-01T00:49:08.000Z,0
2023-04-01T00:50:09.000Z,0
2023-04-01T00:51:09.000Z,0
2023-04-01T00:52:10.000Z,0
2023-04-01T00:53:11.000Z,0
2023-04-01T00:54:12.000Z,0
2023-04-01T00:55:13.000Z,0
2023-04-01T00:56:13.000Z,0
2023-04-01T00:57:14.000Z,0
2023-04-01T00:58:15.000Z,0
2023-04-01T00:59:16.000Z,0
2023-04-01T01:00:16.000Z,0
2023-04-01T01:01:17.000Z,0
2023-04-01T01:02:18.000Z,0
2023-04-01T01:03:19.000Z,0
2023-04-01T01:04:20.000Z,0
2023-04-01T01:05:20.000Z,0
2023-04-01T01:06:21.000Z,0
2023-04-01T01:07:22.000Z,0
2023-04-01T01:08:23.000Z,0
2023-04-01T01:09:23.000Z,0
2023-04-01T01:10:24.000Z,0
2023-04-01T01:11:25.000Z,0
2023-04-01T01:12:26.000Z,0
2023-04-01T01:13:27.000Z,0
2023-04-01T01:14:27.000Z,0
2023-04-01T01:15:28.000Z,0
2023-04-01T01:16:29.000Z,0
2023-04-01T01:17:30.000Z,0
2023-04-01T01:18:31.000Z,0
2023-04-01T01:19:31.000Z,0
2023-04-01T01:20:32.000Z,0
2023-04-01T01:21:33.000Z,0
2023-04-01T01:22:34.000Z,0
2023-04-01T01:23:34.000Z,0
2023-04-01T01:24:35.000Z,0
2023-04-01T01:25:36.000Z,0
2023-04-01T01:26:36.000Z,0
2023-04-01T01:27:37.000Z,0
2023-04-01T01:28:38.000Z,0
2023-04-01T01:29:39.000Z,0
2023-04-01T01:30:40.000Z,0
2023-04-01T01:31:40.000Z,0
2023-04-01T01:32:41.000Z,0
2023-04-01T01:33:42.000Z,0
2023-04-01T01:34:43.000Z,0
2023-04-01T01:35:43.000Z,0
2023-04-01T01:36:44.000Z,0
2023-04-01T01:37:45.000Z,0
2023-04-01T01:38:45.000Z,0
2023-04-01T01:39:46.000Z,0
2023-04-01T01:40:47.000Z,0
2023-04-01T01:41:48.000Z,0
2023-04-01T01:42:49.000Z,0
2023-04-01T01:43:49.000Z,0
2023-04-01T01:44:50.000Z,0
2023-04-01T01:45:51.000Z,0
2023-04-01T01:46:51.000Z,0
2023-04-01T01:47:52.000Z,0
2023-04-01T01:48:53.000Z,0
2023-04-01T01:49:54.000Z,0
2023-04-01T01:50:54.000Z,0
2023-04-01T01:51:55.000Z,0
2023-04-01T01:52:56.000Z,0
2023-04-01T01:53:56.000Z,0
2023-04-01T01:54:57.000Z,0
2023-04-01T01:55:58.000Z,0
2023-04-01T01:56:59.000Z,0
2023-04-01T01:57:59.000Z,0
2023-04-01T01:59:00.000Z,0
2023-04-01T02:00:01.000Z,0
2023-04-01T02:01:02.000Z,0
2023-04-01T02:02:02.000Z,0
2023-04-01T02:03:03.000Z,0
2023-04-01T02:04:04.000Z,0
2023-04-01T02:05:05.000Z,0
2023-04-01T02:06:05.000Z,0
2023-04-01T02:07:06.000Z,0
2023-04-01T02:08:07.000Z,0
2023-04-01T02:09:08.000Z,0
2023-04-01T02:10:09.000Z,0
2023-04-01T02:11:09.000Z,0
2023-04-01T02:12:10.000Z,0
2023-04-01T02:13:11.000Z,0
2023-04-01T02:14:12.000Z,0
2023-04-01T02:15:12.000Z,0
2023-04-01T02:16:13.000Z,0
2023-04-01T02:17:19.000Z,0
2023-04-01T02:18:19.000Z,0
2023-04-01T02:19:20.000Z,0
2023-04-01T02:20:21.000Z,0
2023-04-01T02:21:22.000Z,0
2023-04-01T02:22:22.000Z,0
2023-04-01T02:23:23.000Z,0
2023-04-01T02:24:24.000Z,0
2023-04-01T02:25:25.000Z,0
2023-04-01T02:26:25.000Z,0
2023-04-01T02:27:26.000Z,0
2023-04-01T02:28:27.000Z,0
2023-04-01T02:29:28.000Z,0
2023-04-01T02:30:28.000Z,0
2023-04-01T02:31:29.000Z,0
2023-04-01T02:32:30.000Z,0
2023-04-01T02:33:31.000Z,0
2023-04-01T02:34:31.000Z,0
2023-04-01T02:35:32.000Z,0
2023-04-01T02:36:33.000Z,0
2023-04-01T02:37:34.000Z,0
2023-04-01T02:38:35.000Z,0
2023-04-01T02:39:35.000Z,0
2023-04-01T02:40:36.000Z,0
2023-04-01T02:41:37.000Z,0
2023-04-01T02:42:38.000Z,0
2023-04-01T02:43:38.000Z,0
2023-04-01T02:44:39.000Z,0
2023-04-01T02:45:40.000Z,0
2023-04-01T02:46:41.000Z,0
2023-04-01T02:47:41.000Z,0
2023-04-01T02:48:42.000Z,0
2023-04-01T02:49:43.000Z,0
2023-04-01T02:50:44.000Z,0
2023-04-01T02:51:44.000Z,0
2023-04-01T02:52:45.000Z,0
2023-04-01T02:53:46.000Z,0
2023-04-01T02:54:47.000Z,0
2023-04-01T02:55:47.000Z,0
2023-04-01T02:56:48.000Z,0
2023-04-01T02:57:49.000Z,0
2023-04-01T02:58:50.000Z,0
2023-04-01T02:59:50.000Z,0
2023-04-01T03:00:51.000Z,0
2023-04-01T03:01:52.000Z,0
2023-04-01T03:02:52.000Z,0
2023-04-01T03:03:53.000Z,0
2023-04-01T03:04:54.000Z,0
2023-04-01T03:05:55.000Z,0
2023-04-01T03:06:55.000Z,0
2023-04-01T03:07:56.000Z,0
2023-04-01T03:08:57.000Z,0
2023-04-01T03:09:58.000Z,0
2023-04-01T03:10:58.000Z,0
2023-04-01T03:11:59.000Z,0
2023-04-01T03:13:00.000Z,0
2023-04-01T03:14:00.000Z,0
2023-04-01T03:15:01.000Z,0
2023-04-01T03:16:02.000Z,0
2023-04-01T03:17:03.000Z,0
2023-04-01T03:18:03.000Z,0
2023-04-01T03:19:04.000Z,0
2023-04-01T03:20:05.000Z,0
2023-04-01T03:21:06.000Z,0
2023-04-01T03:22:06.000Z,0
2023-04-01T03:23:07.000Z,0
2023-04-01T03:24:08.000Z,0
2023-04-01T03:25:08.000Z,0
2023-04-01T03:26:09.000Z,0
2023-04-01T03:27:10.000Z,0
2023-04-01T03:28:11.000Z,0
2023-04-01T03:29:11.000Z,0
2023-04-01T03:30:13.000Z,0
2023-04-01T03:31:14.000Z,0
2023-04-01T03:32:15.000Z,0
2023-04-01T03:33:16.000Z,0
2023-04-01T03:34:17.000Z,0
2023-04-01T03:35:18.000Z,0
2023-04-01T03:36:18.000Z,0
2023-04-01T03:37:19.000Z,0
2023-04-01T03:38:20.000Z,0
2023-04-01T03:39:21.000Z,0
2023-04-01T03:40:21.000Z,0
2023-04-01T03:41:22.000Z,0
2023-04-01T03:42:23.000Z,0
2023-04-01T03:43:24.000Z,0
2023-04-01T03:44:24.000Z,0
2023-04-01T03:45:25.000Z,0
2023-04-01T03:46:26.000Z,0
2023-04-01T03:47:27.000Z,0
2023-04-01T03:48:27.000Z,0
2023-04-01T03:49:28.000Z,0
2023-04-01T03:50:29.000Z,0
2023-04-01T03:51:30.000Z,0
2023-04-01T03:52:30.000Z,0
2023-04-01T03:53:31.000Z,0
2023-04-01T03:54:32.000Z,0
2023-04-01T03:55:33.000Z,0
2023-04-01T03:56:33.000Z,0
2023-04-01T03:57:34.000Z,0
2023-04-01T03:58:35.000Z,0
2023-04-01T03:59:36.000Z,0
2023-04-01T04:00:36.000Z,0
2023-04-01T04:01:37.000Z,0
2023-04-01T04:02:38.000Z,0
2023-04-01T04:03:39.000Z,0
2023-04-01T04:04:40.000Z,0
2023-04-01T04:05:40.000Z,0
2023-04-01T04:06:41.000Z,0
2023-04-01T04:07:42.000Z,0
2023-04-01T04:08:43.000Z,1
2023-04-01T04:09:43.000Z,1
2023-04-01T04:10:44.000Z,0
2023-04-01T04:11:45.000Z,1
2023-04-01T04:12:46.000Z,1
2023-04-01T04:13:46.000Z,2
2023-04-01T04:14:47.000Z,1
2023-04-01T04:15:48.000Z,2
2023-04-01T04:16:49.000Z,2
2023-04-01T04:17:50.000Z,3
2023-04-01T04:18:50.000Z,3
2023-04-01T04:19:51.000Z,4
2023-04-01T04:20:52.000Z,5
2023-04-01T04:21:52.000Z,6
2023-04-01T04:22:53.000Z,8
2023-04-01T04:23:54.000Z,9
2023-04-01T04:24:55.000Z,11
2023-04-01T04:25:55.000Z,13
2023-04-01T04:26:56.000Z,15
2023-04-01T04:27:57.000Z,18
2023-04-01T04:28:58.000Z,22
2023-04-01T04:29:59.000Z,26
2023-04-01T04:30:59.000Z,30
2023-04-01T04:32:00.000Z,36
2023-04-01T04:33:01.000Z,41
2023-04-01T04:34:02.000Z,48
2023-04-01T04:35:03.000Z,55
2023-04-01T04:36:03.000Z,63
2023-04-01T04:37:04.000Z,72
2023-04-01T04:38:05.000Z,81
2023-04-01T04:39:06.000Z,90
2023-04-01T04:40:06.000Z,101
2023-04-01T04:41:07.000Z,109
2023-04-01T04:42:08.000Z,117
2023-04-01T04:43:09.000Z,132
2023-04-01T04:44:09.000Z,144
2023-04-01T04:45:10.000Z,162
2023-04-01T04:46:11.000Z,189
2023-04-01T04:47:12.000Z,221
2023-04-01T04:48:13.000Z,251
2023-04-01T04:49:13.000Z,281
2023-04-01T04:50:14.000Z,320
2023-04-01T04:51:15.000Z,362
2023-04-01T04:52:16.000Z,401
2023-04-01T04:53:17.000Z,441
2023-04-01T04:54:17.000Z,484
2023-04-01T04:55:18.000Z,532
2023-04-01T04:56:19.000Z,582
2023-04-01T04:57:19.000Z,651
2023-04-01T04:58:20.000Z,690
2023-04-01T04:59:21.000Z,735
2023-04-01T05:00:22.000Z,790
2023-04-01T05:01:23.000Z,851
2023-04-01T05:02:24.000Z,895
2023-04-01T05:03:24.000Z,927
2023-04-01T05:04:25.000Z,973
2023-04-01T05:05:26.000Z,1034
2023-04-01T05:06:27.000Z,1101
2023-04-01T05:07:27.000Z,1170
2023-04-01T05:08:28.000Z,1232
2023-04-01T05:09:29.000Z,1311
2023-04-01T05:10:30.000Z,1350
2023-04-01T05:11:31.000Z,1392
2023-04-01T05:12:31.000Z,1453
2023-04-01T05:13:32.000Z,1473
2023-04-01T05:14:33.000Z,1506
2023-04-01T05:15:33.000Z,1508
2023-04-01T05:16:34.000Z,1566
2023-04-01T05:17:35.000Z,1626
2023-04-01T05:18:36.000Z,1673
2023-04-01T05:19:36.000Z,1732
2023-04-01T05:20:37.000Z,1804
2023-04-01T05:21:38.000Z,1858
2023-04-01T05:22:39.000Z,1931
2023-04-01T05:23:39.000Z,1976
2023-04-01T05:24:40.000Z,1976
2023-04-01T05:25:41.000Z,2026
2023-04-01T05:26:42.000Z,2045
2023-04-01T05:27:43.000Z,2123
2023-04-01T05:28:43.000Z,2234
2023-04-01T05:29:44.000Z,2335
2023-04-01T05:30:45.000Z,2549
2023-04-01T05:31:46.000Z,2804
2023-04-01T05:32:46.000Z,3177
2023-04-01T05:33:47.000Z,3490
2023-04-01T05:34:48.000Z,3626
2023-04-01T05:35:49.000Z,3823
2023-04-01T05:36:50.000Z,3957
2023-04-01T05:37:50.000Z,3979
2023-04-01T05:38:51.000Z,4018
2023-04-01T05:39:52.000Z,3836
2023-04-01T05:40:53.000Z,3762
2023-04-01T05:41:53.000Z,3616
2023-04-01T05:42:54.000Z,3493
2023-04-01T05:43:55.000Z,3422
2023-04-01T05:44:56.000Z,3362
2023-04-01T05:45:56.000Z,3404
2023-04-01T05:46:57.000Z,3397
2023-04-01T05:47:58.000Z,3538
2023-04-01T05:48:58.000Z,3726
2023-04-01T05:49:59.000Z,3933
2023-04-01T05:51:00.000Z,3926
2023-04-01T05:52:01.000Z,3796
2023-04-01T05:53:01.000Z,3696
2023-04-01T05:54:02.000Z,3504
2023-04-01T05:55:03.000Z,3543
2023-04-01T05:56:04.000Z,3691
2023-04-01T05:57:04.000Z,3858
2023-04-01T05:58:05.000Z,4030
2023-04-01T05:59:06.000Z,4080
2023-04-01T06:00:07.000Z,4192
2023-04-01T06:01:08.000Z,4350
2023-04-01T06:02:08.000Z,4721
2023-04-01T06:03:09.000Z,5238
2023-04-01T06:04:10.000Z,5652
2023-04-01T06:05:10.000Z,5973
2023-04-01T06:06:11.000Z,6584
2023-04-01T06:07:12.000Z,7179
2023-04-01T06:08:13.000Z,7486
2023-04-01T06:09:13.000Z,7385
2023-04-01T06:10:14.000Z,7426
2023-04-01T06:11:15.000Z,7685
2023-04-01T06:12:16.000Z,8182
2023-04-01T06:13:16.000Z,8883
2023-04-01T06:14:17.000Z,8871
2023-04-01T06:15:18.000Z,8669
2023-04-01T06:16:19.000Z,8702
2023-04-01T06:17:19.000Z,8451
2023-04-01T06:18:20.000Z,8532
2023-04-01T06:19:21.000Z,8567
2023-04-01T06:20:22.000Z,7943
2023-04-01T06:21:22.000Z,7514
2023-04-01T06:22:23.000Z,7624
2023-04-01T06:23:24.000Z,7923
2023-04-01T06:24:25.000Z,8368
2023-04-01T06:25:25.000Z,8794
2023-04-01T06:26:26.000Z,9443
2023-04-01T06:27:27.000Z,10002
2023-04-01T06:28:28.000Z,10657
2023-04-01T06:29:29.000Z,11113
2023-04-01T06:30:29.000Z,11513
2023-04-01T06:31:30.000Z,11694
2023-04-01T06:32:31.000Z,12199
2023-04-01T06:33:32.000Z,12292
2023-04-01T06:34:32.000Z,12108
2023-04-01T06:35:33.000Z,12394
2023-04-01T06:36:34.000Z,12427
2023-04-01T06:37:35.000Z,12075
2023-04-01T06:38:35.000Z,12305
2023-04-01T06:39:36.000Z,12457
2023-04-01T06:40:37.000Z,11963
2023-04-01T06:41:38.000Z,11920
2023-04-01T06:42:44.000Z,11555
2023-04-01T06:43:44.000Z,11556
2023-04-01T06:44:45.000Z,11770
2023-04-01T06:45:46.000Z,11458
2023-04-01T06:46:47.000Z,11318
2023-04-01T06:47:47.000Z,11519
2023-04-01T06:48:48.000Z,11297
2023-04-01T06:49:49.000Z,11180
2023-04-01T06:50:50.000Z,11454
2023-04-01T06:51:50.000Z,11842
2023-04-01T06:52:51.000Z,11869
2023-04-01T06:53:52.000Z,12236
2023-04-01T06:54:53.000Z,12950
2023-04-01T06:55:53.000Z,13438
2023-04-01T06:56:54.000Z,13527
2023-04-01T06:57:55.000Z,14002
2023-04-01T06:58:56.000Z,13965
2023-04-01T06:59:57.000Z,13918
2023-04-01T07:00:57.000Z,14149
2023-04-01T07:01:58.000Z,14388
2023-04-01T07:02:59.000Z,14640
2023-04-01T07:04:00.000Z,14915
2023-04-01T07:05:00.000Z,15133
2023-04-01T07:06:01.000Z,16272
2023-04-01T07:07:02.000Z,16680
2023-04-01T07:08:03.000Z,16192
2023-04-01T07:09:04.000Z,16728
2023-04-01T07:10:04.000Z,17400
2023-04-01T07:11:05.000Z,17400
2023-04-01T07:12:06.000Z,17600
2023-04-01T07:13:07.000Z,17248
2023-04-01T07:14:12.000Z,17088
2023-04-01T07:15:13.000Z,17680
2023-04-01T07:16:14.000Z,18056
2023-04-01T07:17:14.000Z,17920
2023-04-01T07:18:15.000Z,17408
2023-04-01T07:19:16.000Z,16640
2023-04-01T07:20:17.000Z,15661
2023-04-01T07:21:17.000Z,15663
2023-04-01T07:22:18.000Z,15584
2023-04-01T07:23:19.000Z,16368
2023-04-01T07:24:20.000Z,16480
2023-04-01T07:25:20.000Z,16074
2023-04-01T07:26:21.000Z,15716
2023-04-01T07:27:22.000Z,15957
2023-04-01T07:28:23.000Z,16376
2023-04-01T07:29:24.000Z,16920
2023-04-01T07:30:24.000Z,16568
2023-04-01T07:31:25.000Z,15896
2023-04-01T07:32:26.000Z,15390
2023-04-01T07:33:26.000Z,16248
2023-04-01T07:34:27.000Z,15625
2023-04-01T07:35:28.000Z,15902
2023-04-01T07:36:29.000Z,16600
2023-04-01T07:37:29.000Z,16992
2023-04-01T07:38:30.000Z,16376
2023-04-01T07:39:31.000Z,15360
2023-04-01T07:40:32.000Z,17000
2023-04-01T07:41:32.000Z,17632
2023-04-01T07:42:33.000Z,18608
2023-04-01T07:43:34.000Z,18936
2023-04-01T07:44:35.000Z,18904
2023-04-01T07:45:35.000Z,17856
2023-04-01T07:46:36.000Z,16360
2023-04-01T07:47:37.000Z,16704
2023-04-01T07:48:38.000Z,16104
2023-04-01T07:49:39.000Z,16128
2023-04-01T07:50:39.000Z,16760
2023-04-01T07:51:40.000Z,16888
2023-04-01T07:52:41.000Z,15774
2023-04-01T07:53:42.000Z,16064
2023-04-01T07:54:43.000Z,14850
2023-04-01T07:55:43.000Z,14253
2023-04-01T07:56:44.000Z,15425
2023-04-01T07:57:45.000Z,15668
2023-04-01T07:58:46.000Z,15191
2023-04-01T07:59:47.000Z,16832
2023-04-01T08:00:47.000Z,17152
2023-04-01T08:01:48.000Z,16872
2023-04-01T08:02:49.000Z,17880
2023-04-01T08:03:50.000Z,17368
2023-04-01T08:04:50.000Z,17592
2023-04-01T08:05:51.000Z,18536
2023-04-01T08:06:52.000Z,18304
2023-04-01T08:07:53.000Z,19472
2023-04-01T08:08:54.000Z,17616
2023-04-01T08:09:54.000Z,16312
2023-04-01T08:10:55.000Z,16464
2023-04-01T08:11:56.000Z,16520
2023-04-01T08:12:57.000Z,17008
2023-04-01T08:13:57.000Z,17216
2023-04-01T08:14:58.000Z,18296
2023-04-01T08:15:59.000Z,19632
2023-04-01T08:17:00.000Z,19984
2023-04-01T08:18:00.000Z,19480
2023-04-01T08:19:01.000Z,20728
2023-04-01T08:20:02.000Z,21752
2023-04-01T08:21:03.000Z,21744
2023-04-01T08:22:04.000Z,21848
2023-04-01T08:23:04.000Z,23432
2023-04-01T08:24:05.000Z,23472
2023-04-01T08:25:06.000Z,21104
2023-04-01T08:26:07.000Z,20920
2023-04-01T08:27:08.000Z,21440
2023-04-01T08:28:08.000Z,20080
2023-04-01T08:29:09.000Z,19144
2023-04-01T08:30:10.000Z,19200
2023-04-01T08:31:10.000Z,18712
2023-04-01T08:32:11.000Z,19552
2023-04-01T08:33:12.000Z,20648
2023-04-01T08:34:13.000Z,19872
2023-04-01T08:35:13.000Z,18200
2023-04-01T08:36:14.000Z,18112
2023-04-01T08:37:15.000Z,17992
2023-04-01T08:38:16.000Z,18592
2023-04-01T08:39:16.000Z,19704
2023-04-01T08:40:17.000Z,19320
2023-04-01T08:41:18.000Z,16944
2023-04-01T08:42:19.000Z,15059
2023-04-01T08:43:19.000Z,15681
2023-04-01T08:44:20.000Z,16728
2023-04-01T08:45:21.000Z,16312
2023-04-01T08:46:22.000Z,16104
2023-04-01T08:47:22.000Z,15259
2023-04-01T08:48:23.000Z,14774
2023-04-01T08:49:24.000Z,16232
2023-04-01T08:50:25.000Z,15992
2023-04-01T08:51:25.000Z,16808
2023-04-01T08:52:26.000Z,19168
2023-04-01T08:53:27.000Z,20576
2023-04-01T08:54:28.000Z,21136
2023-04-01T08:55:28.000Z,20872
2023-04-01T08:56:29.000Z,20624
2023-04-01T08:57:30.000Z,22104
2023-04-01T08:58:31.000Z,22904
2023-04-01T08:59:31.000Z,23488
2023-04-01T09:00:32.000Z,23656
2023-04-01T09:01:33.000Z,21816
2023-04-01T09:02:33.000Z,20936
2023-04-01T09:03:34.000Z,20520
2023-04-01T09:04:35.000Z,21192
2023-04-01T09:05:36.000Z,21200
2023-04-01T09:06:36.000Z,23784
2023-04-01T09:07:37.000Z,26792
2023-04-01T09:08:38.000Z,28608
2023-04-01T09:09:39.000Z,28992
2023-04-01T09:10:39.000Z,28984
2023-04-01T09:11:40.000Z,29920
2023-04-01T09:12:41.000Z,32528
2023-04-01T09:13:42.000Z,35608
2023-04-01T09:14:42.000Z,37672
2023-04-01T09:15:43.000Z,37712
2023-04-01T09:16:44.000Z,35320
2023-04-01T09:17:45.000Z,33448
2023-04-01T09:18:45.000Z,32992
2023-04-01T09:19:46.000Z,37232
2023-04-01T09:20:47.000Z,38968
2023-04-01T09:21:48.000Z,40664
2023-04-01T09:22:48.000Z,41240
2023-04-01T09:23:49.000Z,39936
2023-04-01T09:24:50.000Z,38192
2023-04-01T09:25:51.000Z,38832
2023-04-01T09:26:51.000Z,38024
2023-04-01T09:27:52.000Z,38064
2023-04-01T09:28:53.000Z,35984
2023-04-01T09:29:54.000Z,35480
2023-04-01T09:30:55.000Z,37360
2023-04-01T09:31:55.000Z,36520
2023-04-01T09:32:56.000Z,39792
2023-04-01T09:33:57.000Z,42480
2023-04-01T09:34:57.000Z,45112
2023-04-01T09:35:58.000Z,46560
2023-04-01T09:36:59.000Z,44192
2023-04-01T09:38:00.000Z,41352
2023-04-01T09:39:01.000Z,41984
2023-04-01T09:40:01.000Z,45440
2023-04-01T09:41:02.000Z,47504
2023-04-01T09:42:03.000Z,45944
2023-04-01T09:43:04.000Z,47776
2023-04-01T09:44:04.000Z,43480
2023-04-01T09:45:05.000Z,37720
2023-04-01T09:46:06.000Z,36040
2023-04-01T09:47:07.000Z,32584
2023-04-01T09:48:08.000Z,29008
2023-04-01T09:49:08.000Z,26768
2023-04-01T09:50:09.000Z,26536
2023-04-01T09:51:10.000Z,26448
2023-04-01T09:52:11.000Z,27368
2023-04-01T09:53:11.000Z,28712
2023-04-01T09:54:12.000Z,30816
2023-04-01T09:55:13.000Z,32392
2023-04-01T09:56:14.000Z,33016
2023-04-01T09:57:15.000Z,33656
2023-04-01T09:58:15.000Z,34344
2023-04-01T09:59:16.000Z,34416
2023-04-01T10:00:17.000Z,32864
2023-04-01T10:01:18.000Z,31224
2023-04-01T10:02:18.000Z,29256
2023-04-01T10:03:19.000Z,28024
2023-04-01T10:04:20.000Z,25496
2023-04-01T10:05:20.000Z,21744
2023-04-01T10:06:21.000Z,17504
2023-04-01T10:07:22.000Z,15712
2023-04-01T10:08:23.000Z,14534
2023-04-01T10:09:23.000Z,13283
2023-04-01T10:10:24.000Z,13055
2023-04-01T10:11:25.000Z,12734
2023-04-01T10:12:26.000Z,12055
2023-04-01T10:13:26.000Z,11795
2023-04-01T10:14:27.000Z,12097
2023-04-01T10:15:28.000Z,12242
2023-04-01T10:16:29.000Z,12810
2023-04-01T10:17:29.000Z,14039
2023-04-01T10:18:30.000Z,15236
2023-04-01T10:19:31.000Z,16648
2023-04-01T10:20:32.000Z,18376
2023-04-01T10:21:32.000Z,19560
2023-04-01T10:22:33.000Z,20320
2023-04-01T10:23:34.000Z,21584
2023-04-01T10:24:35.000Z,22648
2023-04-01T10:25:35.000Z,23456
2023-04-01T10:26:36.000Z,23960
2023-04-01T10:27:37.000Z,24024
2023-04-01T10:28:38.000Z,23912
2023-04-01T10:29:39.000Z,23184
2023-04-01T10:30:39.000Z,22936
2023-04-01T10:31:40.000Z,22616
2023-04-01T10:32:41.000Z,22784
2023-04-01T10:33:42.000Z,23144
2023-04-01T10:34:42.000Z,23704
2023-04-01T10:35:43.000Z,23880
2023-04-01T10:36:44.000Z,23528
2023-04-01T10:37:45.000Z,23744
2023-04-01T10:38:45.000Z,24296
2023-04-01T10:39:46.000Z,25064
2023-04-01T10:40:47.000Z,25672
2023-04-01T10:41:48.000Z,25072
2023-04-01T10:42:48.000Z,22544
2023-04-01T10:43:49.000Z,21032
2023-04-01T10:44:50.000Z,18936
2023-04-01T10:45:51.000Z,17456
2023-04-01T10:46:51.000Z,16856
2023-04-01T10:47:52.000Z,15880
2023-04-01T10:48:53.000Z,14223
2023-04-01T10:49:54.000Z,13112
2023-04-01T10:50:54.000Z,12840
2023-04-01T10:51:55.000Z,12855
2023-04-01T10:52:56.000Z,12500
2023-04-01T10:53:57.000Z,11837
2023-04-01T10:54:58.000Z,11272
2023-04-01T10:55:58.000Z,11002
2023-04-01T10:56:59.000Z,11221
2023-04-01T10:58:00.000Z,11756
2023-04-01T10:59:01.000Z,12267
2023-04-01T11:00:01.000Z,13081
2023-04-01T11:01:02.000Z,13868
2023-04-01T11:02:03.000Z,14532
2023-04-01T11:03:04.000Z,14949
2023-04-01T11:04:04.000Z,15872
2023-04-01T11:05:05.000Z,17088
2023-04-01T11:06:06.000Z,18568
2023-04-01T11:07:07.000Z,19800
2023-04-01T11:08:07.000Z,21912
2023-04-01T11:09:08.000Z,21360
2023-04-01T11:10:09.000Z,21904
2023-04-01T11:11:10.000Z,21072
2023-04-01T11:12:10.000Z,21608
2023-04-01T11:13:11.000Z,21992
2023-04-01T11:14:12.000Z,22568
2023-04-01T11:15:13.000Z,22952
2023-04-01T11:16:13.000Z,23144
2023-04-01T11:17:14.000Z,24248
2023-04-01T11:18:15.000Z,25984
2023-04-01T11:19:15.000Z,26408
2023-04-01T11:20:16.000Z,24728
2023-04-01T11:21:17.000Z,21528
2023-04-01T11:22:18.000Z,18336
2023-04-01T11:23:18.000Z,16576
2023-04-01T11:24:19.000Z,16560
2023-04-01T11:25:20.000Z,18248
2023-04-01T11:26:20.000Z,19832
2023-04-01T11:27:21.000Z,22528
2023-04-01T11:28:22.000Z,23496
2023-04-01T11:29:23.000Z,24576
2023-04-01T11:30:23.000Z,25312
2023-04-01T11:31:24.000Z,25992
2023-04-01T11:32:25.000Z,26624
2023-04-01T11:33:26.000Z,26624
2023-04-01T11:34:26.000Z,26216
2023-04-01T11:35:27.000Z,24840
2023-04-01T11:36:28.000Z,22120
2023-04-01T11:37:29.000Z,19368
2023-04-01T11:38:29.000Z,17336
2023-04-01T11:39:30.000Z,16112
2023-04-01T11:40:31.000Z,15417
2023-04-01T11:41:32.000Z,15356
2023-04-01T11:42:32.000Z,15055
2023-04-01T11:43:33.000Z,14731
2023-04-01T11:44:34.000Z,14442
2023-04-01T11:45:34.000Z,14180
2023-04-01T11:46:35.000Z,13665
2023-04-01T11:47:36.000Z,13307
2023-04-01T11:48:36.000Z,12329
2023-04-01T11:49:37.000Z,11071
2023-04-01T11:50:38.000Z,10381
2023-04-01T11:51:39.000Z,10045
2023-04-01T11:52:39.000Z,9641
2023-04-01T11:53:40.000Z,9688
2023-04-01T11:54:41.000Z,9932
2023-04-01T11:55:42.000Z,10097
2023-04-01T11:56:43.000Z,10227
2023-04-01T11:57:43.000Z,10573
2023-04-01T11:58:44.000Z,11062
2023-04-01T11:59:45.000Z,11632
2023-04-01T12:00:45.000Z,12232
2023-04-01T12:01:46.000Z,12707
2023-04-01T12:02:47.000Z,12994
2023-04-01T12:03:48.000Z,13462
2023-04-01T12:04:49.000Z,14298
2023-04-01T12:05:49.000Z,15512
2023-04-01T12:06:50.000Z,16504
2023-04-01T12:07:51.000Z,17144
2023-04-01T12:08:52.000Z,17352
2023-04-01T12:09:53.000Z,17648
2023-04-01T12:10:54.000Z,17568
2023-04-01T12:11:55.000Z,17864
2023-04-01T12:12:55.000Z,18480
2023-04-01T12:13:56.000Z,19456
2023-04-01T12:14:57.000Z,20352
2023-04-01T12:15:58.000Z,21040
2023-04-01T12:16:59.000Z,21416
2023-04-01T12:18:00.000Z,21616
2023-04-01T12:19:01.000Z,21896
2023-04-01T12:20:02.000Z,22496
2023-04-01T12:21:03.000Z,23376
2023-04-01T12:22:03.000Z,24248
2023-04-01T12:23:06.000Z,25320
2023-04-01T12:24:07.000Z,26096
2023-04-01T12:25:07.000Z,26672
2023-04-01T12:26:08.000Z,27144
2023-04-01T12:27:09.000Z,27520
2023-04-01T12:28:10.000Z,28272
2023-04-01T12:29:11.000Z,28944
2023-04-01T12:30:12.000Z,29040
2023-04-01T12:31:13.000Z,28264
2023-04-01T12:32:14.000Z,27128
2023-04-01T12:33:15.000Z,26632
2023-04-01T12:34:16.000Z,26144
2023-04-01T12:35:17.000Z,25176
2023-04-01T12:36:18.000Z,23992
2023-04-01T12:37:19.000Z,23176
2023-04-01T12:38:20.000Z,22928
2023-04-01T12:39:21.000Z,22880
2023-04-01T12:40:22.000Z,23200
2023-04-01T12:41:23.000Z,23712
2023-04-01T12:42:24.000Z,24320
2023-04-01T12:43:25.000Z,25248
2023-04-01T12:44:26.000Z,26104
2023-04-01T12:45:32.000Z,27144
2023-04-01T12:46:33.000Z,28136
2023-04-01T12:47:34.000Z,29000
2023-04-01T12:48:35.000Z,29624
2023-04-01T12:49:36.000Z,30152
2023-04-01T12:50:37.000Z,30440
2023-04-01T12:51:38.000Z,30536
2023-04-01T12:52:39.000Z,30576
2023-04-01T12:53:40.000Z,30480
2023-04-01T12:54:41.000Z,30240
2023-04-01T12:55:42.000Z,29960
2023-04-01T12:56:43.000Z,29680
2023-04-01T12:57:44.000Z,29288
2023-04-01T12:58:45.000Z,28880
2023-04-01T12:59:46.000Z,28568
2023-04-01T13:00:47.000Z,28288
2023-04-01T13:01:48.000Z,27864
2023-04-01T13:02:49.000Z,27568
2023-04-01T13:03:50.000Z,27208
2023-04-01T13:04:51.000Z,27016
2023-04-01T13:05:52.000Z,26832
2023-04-01T13:06:53.000Z,26584
2023-04-01T13:07:54.000Z,26392
2023-04-01T13:08:55.000Z,26312
2023-04-01T13:09:55.000Z,26104
2023-04-01T13:10:56.000Z,25984
2023-04-01T13:11:57.000Z,25896
2023-04-01T13:12:58.000Z,25832
2023-04-01T13:13:59.000Z,25776
2023-04-01T13:15:00.000Z,25592
2023-04-01T13:16:01.000Z,25480
2023-04-01T13:17:02.000Z,25256
2023-04-01T13:18:03.000Z,24968
2023-04-01T13:19:04.000Z,24680
2023-04-01T13:20:05.000Z,24352
2023-04-01T13:21:05.000Z,24080
2023-04-01T13:22:07.000Z,23728
2023-04-01T13:23:08.000Z,23408
2023-04-01T13:24:10.000Z,23112
2023-04-01T13:25:10.000Z,22880
2023-04-01T13:26:11.000Z,22592
2023-04-01T13:27:12.000Z,22384
2023-04-01T13:28:13.000Z,22160
2023-04-01T13:29:14.000Z,21936
2023-04-01T13:30:16.000Z,21776
2023-04-01T13:31:17.000Z,21528
2023-04-01T13:32:18.000Z,21360
2023-04-01T13:33:19.000Z,21112
2023-04-01T13:34:20.000Z,20968
2023-04-01T13:35:21.000Z,21248
2023-04-01T13:36:21.000Z,21552
2023-04-01T13:37:22.000Z,22240
2023-04-01T13:38:23.000Z,22336
2023-04-01T13:39:25.000Z,22584
2023-04-01T13:40:26.000Z,22856
2023-04-01T13:41:26.000Z,23136
2023-04-01T13:42:27.000Z,23328
2023-04-01T13:43:28.000Z,23520